AREA preflight bulletin
Updated "live" 15 Dec 2019, 10:06

back to the map




METAR og TAF


THULE (MIL)
  AKTUEL BGTL 150856Z AUTO 15014KT 9999 CLR M18/M20 A2994 RMK AO2 SLP129 T11761204 52020 TSNO ?=
  TAF 24 timer BGTL 131940Z 1319/1416 13025G35KT 5000 BLSN FEW030 SCT100 520009 QNH2920INS BECMG 1405/1406 09012KT 9999 NSW SKC 530009 QNH2955INS TXM14/1314Z TNM27/1410Z LAST NO AMDS AFT 1314 NEXT 1610=

QAANAAQ
  AKTUEL BGQQ 150950Z AUTO 08019KT 9999NDV ///120/// M10/M20 Q1015 RMK /// =
  TAF 9 timer BGQQ 141611Z 1416/1420 10012KT 9999 FEW030 SCT080 TEMPO 1416/1420 15015G25KT DRSN BKN070=

UPERNAVIK
  AKTUEL BGUK 150950Z AUTO 10011KT 9999NDV BKN062/// M10/M13 Q1016=
  TAF 9 timer BGUK 141802Z 1418/1422 20015KT 9999 -SHSN DRSN FEW006 SCT012 BKN045 TEMPO 1418/1422 16020G30KT 2000 BLSN BKN012=

ILULISSAT
  AKTUEL BGJN 150950Z AUTO 11016KT 9999NDV OVC055/// M11/M17 Q1018=
  TAF 9 timer BGJN 141711Z 1418/1423 11017KT 9999 DRSN BKN050 TEMPO 1418/1423 BKN035=

KANGERLUSSUAQ
  AKTUEL BGSF 150950Z AUTO 07011KT 9999NDV OVC050/// M13/M16 Q1019=
  TAF 24 timer BGSF 141649Z 1418/1503 05008KT 9999 BKN045 TEMPO 1418/1503 BKN035=


SIGMETS:

SONDRESTROM FIR
  SIGMET BGGL SIGMET 3 VALID 150930/151330 BGSF- BGGL NUUK FIR SEV TURB FCST AT 0930Z WI N6745 W03120 - N7353 W02015 - N7001 W02111 - N6831 W02601 - N6745 W03120 SFC/FL130 STNR NC=

SNOWTAM:

ICAO
BGSF (KANGERLUSSUAQ)

valid from:
1912142220

Notam_id:
0171

SNOWTAM 0171 A) BGSF B) 12142220 C) 09 F) 487/487/487 G) 12/12/12 H) 5/5/5 N) A/3487/GOOD B C D/487/GOOD R) N/3487/GOOD E W/487/GOOD HELIAPRON/3487/POOR T) MEASURED FRICTION COEFFICIENTS 71/86/87 TAP, RWY CONTAMINATION 10 PERCENT OF 2MM DRY SNOW, 25 PERCENT 5MM COMPACTED OR ROLLED SNOW AND 10 PERCENT OF 5MM ICE



NOTAM/SNOWTAM for operationel use has to be confirmed with the
nearest AIS Briefing Office prior to a flight.

ICAO
BGQQ (QAANAAQ)

FIR
BGGL

Notam_id:
BGB0677/19

valid from:
1910221717

E) SEA RESCUE SERVICE NOT AVAILABLE.

valid to:
2006301830




ICAO
BGQQ (QAANAAQ)

FIR
BGGL

Notam_id:
BGB0606/19

valid from:
1909101336

E) DUE TO DIFFERENCE IN SURFACE LEVEL. A 7 METER LONG SLOPE, 0.8 DEGREE INCLINE ON THE RUNWAY. STARTING 220 METERS FROM RWY 17 EDGE.

valid to:
2008011200




ICAO
BGUK (UPERNAVIK)

FIR
BGGL

Notam_id:
BGB0663/19

valid from:
1912050000

E) TRIGGER NOTAM - PERM AIP AIRAC AMDT 08/19 WEF 05 DEC 2019. TEMPERATURE LIMITATIONS FOR BARO-VNAV APPROACH ADDED ON CHART RNAV (GNSS) RWY 23 - 1.

valid to:
1912182359




ICAO
BGUK (UPERNAVIK)

FIR
BGGL

Notam_id:
BGB0655/19

valid from:
1910080929

E) TEMPERATURE LIMITATIONS ADDED FOR BARO-VNAV RNAV (GNSS) RWY 23 APPROACH. WITH REF. AIP GREENLAND AD 2 - BGUK - RNAV (GNSS) RWY 23 - 1 EFF. 18 AUG 2016, ADD IN PLANVIEW THE FOLLOWING TEXT: BARO-VNAV NOT AUTHORIZED BELOW -30 DEGREES CELSIUS AND VNAV EXCEEDS 3.5 DEGREES ABOVE 32 DEGREES CELSIUS.

valid to:
PERM




ICAO
BGUK (UPERNAVIK)

FIR
BGGL

Notam_id:
BGB0812/19

valid from:
1912131857

E) OBST LIGHTS AT ANEMOMETER RWY 23 U/S.

valid to:
1912161700EST


Replacing:
BGB0776/19

ICAO
BGUK (UPERNAVIK)

FIR
BGGL

Notam_id:
BGB0145/19

valid from:
1903041251

E) FIRE AND RESCUE CAT. 5 ONLY AVAILBLAE WHEN REQUESTED DUE TO LACK OF STAFF.

valid to:
1912301500




ICAO
BGUK (UPERNAVIK)

FIR
BGGL

Notam_id:
BGB0808/19

valid from:
1912121543

E) SEARESCUE SERVICE NOT AVAILABLE.

valid to:
2005151400EST




ICAO
BGGL (SONDRESTROM FIR)

FIR
BGGL

Notam_id:
BGA0483/19

valid from:
1909271038

E) NUUK INFORMATION FREQ 5526 KHZ PSN 6334N03707W KULUSUK U/S.

valid to:
2004011800




ICAO
BGGL (SONDRESTROM FIR)

FIR
BGGL

Notam_id:
BGA0594/19

valid from:
1912010551

E) CHECKLIST YEAR=2018 0199 YEAR=2019 0483 0519 0527 0556 0566 0569 0570 0584 LATEST PUBLICATIONS AIP AIRAC AMDT IFR 008/2019 EFFECTIVE DATE 05 DEC 19 AIP AMDT IFR 003/2018 EFFECTIVE DATE 15 MAR 18 AIP SUP IFR 002/2019 EFFECTIVE DATE 08 NOV 19 AIC IFR A001/2019 EFFECTIVE DATE 17 JAN 19 AIC CHECKLIST AIP IFR A001/2016 A002/2016 A001/2017 A002/2017 A002/2018 A003/2018 A004/2018 A001/2019 AIP VFR NIL AIP MIL NIL SUP CHECKLIST AIP IFR 002/2019 AIP VFR NIL AIP MIL NIL

valid to:
2001010551EST


Replacing:
BGA0530/19

ICAO
BGGL (SONDRESTROM FIR)

FIR
BGGL

Notam_id:
BGB0781/19

valid from:
1912010552

E) CHECKLIST YEAR=2019 0145 0606 0655 0663 0677 0696 0734 0764 0765 0767 0775 0776 0779 0780 LATEST PUBLICATIONS AIP AIRAC AMDT IFR 008/2019 EFFECTIVE DATE 05 DEC 19 AIP AMDT IFR 003/2018 EFFECTIVE DATE 15 MAR 18 AIP SUP IFR 002/2019 EFFECTIVE DATE 08 NOV 19 AIC IFR A001/2019 EFFECTIVE DATE 17 JAN 19 AIC CHECKLIST AIP IFR A001/2016 A002/2016 A001/2017 A002/2017 A002/2018 A003/2018 A004/2018 A001/2019 AIP VFR NIL AIP MIL NIL SUP CHECKLIST AIP IFR 002/2019 AIP VFR NIL AIP MIL NIL

valid to:
2001010552EST


Replacing:
BGB0698/19

ICAO
BGGL (SONDRESTROM FIR)

FIR
BGGL

Notam_id:
BGC0127/19

valid from:
1912010552

E) CHECKLIST YEAR=2019 0067 0068 0070 0073 0096 0105 0106 0121 0125 LATEST PUBLICATIONS AIP AIRAC AMDT IFR 008/2019 EFFECTIVE DATE 05 DEC 19 AIP AMDT IFR 003/2018 EFFECTIVE DATE 15 MAR 18 AIP SUP IFR 002/2019 EFFECTIVE DATE 08 NOV 19 AIC IFR A001/2019 EFFECTIVE DATE 17 JAN 19 AIC CHECKLIST AIP IFR A001/2016 A002/2016 A001/2017 A002/2017 A002/2018 A003/2018 A004/2018 A001/2019 AIP VFR NIL AIP MIL NIL SUP CHECKLIST AIP IFR 002/2019 AIP VFR NIL AIP MIL NIL

valid to:
2001010552EST


Replacing:
BGC0117/19

ICAO
BGGL (SONDRESTROM FIR)

FIR
BGGL

Notam_id:
BGA0600/19

valid from:
1912170903

D) DAILY 0903-1020


E) DANGER AREA ACTIVATED TEMPORARY DANGER AREA ESTABLISHED IN BGGL FIR PART OF THE BELOW MENTIONED AREA. SOYUZ ROCKET LAUNCH VS23 FROM FRENCH GUYANA SPACE CENTER. DEBRIS IMPACTED AREA BOUNDED BY: 7035N06346W 7040N06203W 6911N06134W 6907N06310W F) SFC G) FL195

valid to:
1912241020




ICAO
BGGL (SONDRESTROM FIR)

FIR
BGGL

Notam_id:
BGA0519/19

valid from:
1912050000

E) TRIGGER NOTAM - PERM AIP AIRAC AMDT 08/19 WEF 05 DEC 2019. LIST OF AIRAC EFFECTIVE DATES UPDATED.

valid to:
1912182359




ICAO
BGGL (SONDRESTROM FIR)

FIR
BGGL

Notam_id:
BGA0199/18

valid from:
1805310935

E) GREENLAND AND ADJACENT WATERS ARE CONSIDERED HOSTILE AREAS BY THE CIVIL AVIATION AUTHORITY (TBST). THREE MAJOR REASONS CONTRIBUTE TO DEFINING THE AREA AS HOSTILE: A SAFE FORCED LANDING CANNOT BE ACCOMPLISHED BECAUSE THE SURFACE IS INADEQUATE. THE HELICOPTER OCCUPANTS CANNOT BE ADEQUATELY PROTECTED FROM THE ELEMENTS. SEARCH AND RESCUE RESPONSE/CAPABILITY ARE NOT PROVIDED CONSISTENT WITH ANTICIPATED EXPOSURE.

valid to:
PERM




ICAO
BGGL (SONDRESTROM FIR)

FIR
BGGL

Notam_id:
BGA0601/19

valid from:
2001300000

E) AIP GREENLAND AIRAC AMDT EFFECTIVE DATE 30 JAN 2020: NIL.

valid to:
2002122359




ICAO
BGGL (SONDRESTROM FIR)

FIR
BGGL

Notam_id:
BGA0584/19

valid from:
2001020000

E) AIP GREENLAND AIRAC AMDT EFFECTIVE DATE 02 JAN 2020: NIL.

valid to:
2001152359





Copyright Naviair   2003-2016